createdAt,value
2022-10-10T00:03:07.941Z,1.17
2022-10-10T00:08:11.568Z,1.10
2022-10-10T00:13:16.219Z,1.10
2022-10-10T00:18:19.477Z,1.15
2022-10-10T00:23:23.124Z,1.10
2022-10-10T00:28:28.153Z,1.15
2022-10-10T00:33:31.669Z,1.20
2022-10-10T00:38:35.179Z,1.42
2022-10-10T00:43:40.580Z,1.10
2022-10-10T00:48:46.484Z,1.05
2022-10-10T00:53:52.530Z,1.10
2022-10-10T00:59:01.274Z,1.02
2022-10-10T01:04:04.960Z,0.90
2022-10-10T01:09:08.455Z,1.00
2022-10-10T01:14:25.151Z,0.90
2022-10-10T01:19:49.936Z,1.20
2022-10-10T01:24:59.144Z,0.90
2022-10-10T01:30:09.210Z,0.90
2022-10-10T01:35:26.887Z,0.95
2022-10-10T01:40:34.935Z,1.00
2022-10-10T01:45:44.434Z,1.00
2022-10-10T01:51:09.546Z,1.00
2022-10-10T01:56:25.943Z,1.17
2022-10-10T02:01:37.085Z,1.13
2022-10-10T02:06:45.539Z,1.15
2022-10-10T02:11:50.745Z,1.13
2022-10-10T02:16:56.998Z,0.98
2022-10-10T02:22:01.761Z,1.15
2022-10-10T02:27:09.731Z,0.98
2022-10-10T02:32:21.004Z,0.90
2022-10-10T02:37:25.034Z,1.23
2022-10-10T02:42:29.857Z,1.30
2022-10-10T02:47:34.418Z,1.30
2022-10-10T02:52:37.651Z,1.20
2022-10-10T02:57:40.944Z,1.17
2022-10-10T03:02:46.185Z,1.17
2022-10-10T03:07:49.455Z,1.08
2022-10-10T03:12:52.912Z,0.93
2022-10-10T03:17:57.778Z,1.00
2022-10-10T03:23:00.939Z,1.00
2022-10-10T03:28:04.259Z,1.20
2022-10-10T03:33:09.852Z,1.10
2022-10-10T03:38:15.088Z,0.80
2022-10-10T03:43:18.483Z,1.10
2022-10-10T03:48:23.033Z,1.20
2022-10-10T03:53:26.292Z,1.05
2022-10-10T03:58:29.562Z,1.10
2022-10-10T04:03:34.579Z,1.33
2022-10-10T04:08:37.854Z,0.95
2022-10-10T04:13:41.249Z,1.20
2022-10-10T04:18:45.813Z,1.10
2022-10-10T04:23:49.063Z,1.10
2022-10-10T04:28:52.301Z,1.00
2022-10-10T04:33:56.939Z,1.20
2022-10-10T04:39:00.562Z,1.00
2022-10-10T04:44:03.805Z,1.13
2022-10-10T04:49:08.518Z,0.88
2022-10-10T04:54:13.334Z,1.10
2022-10-10T04:59:16.586Z,1.02
2022-10-10T05:04:21.231Z,1.13
2022-10-10T05:09:24.762Z,0.90
2022-10-10T05:14:28.393Z,1.00
2022-10-10T05:19:32.992Z,1.00
2022-10-10T05:24:36.180Z,1.08
2022-10-10T05:29:39.607Z,1.15
2022-10-10T05:34:44.250Z,1.42
2022-10-10T05:39:53.701Z,1.20
2022-10-10T05:44:57.850Z,1.17
2022-10-10T05:50:02.600Z,1.15
2022-10-10T05:55:06.813Z,1.52
2022-10-10T06:00:11.115Z,1.15
2022-10-10T06:05:15.844Z,1.25
2022-10-10T06:10:19.177Z,1.25
2022-10-10T06:15:22.418Z,1.52
2022-10-10T06:20:27.065Z,1.25
2022-10-10T06:25:40.186Z,1.38
2022-10-10T06:30:45.185Z,1.48
2022-10-10T06:35:51.009Z,1.20
2022-10-10T06:40:57.431Z,1.10
2022-10-10T06:46:04.988Z,1.52
2022-10-10T06:51:12.337Z,2.22
2022-10-10T06:56:27.452Z,1.88
2022-10-10T07:01:31.199Z,2.17
2022-10-10T07:06:35.947Z,1.63
2022-10-10T07:11:39.612Z,1.95
2022-10-10T07:16:42.900Z,1.70
2022-10-10T07:21:47.572Z,1.63
2022-10-10T07:27:02.351Z,1.38
2022-10-10T07:32:08.542Z,1.58
2022-10-10T07:37:13.191Z,1.45
2022-10-10T07:42:16.574Z,1.27
2022-10-10T07:47:19.899Z,1.60
2022-10-10T07:52:24.499Z,2.40
2022-10-10T07:57:27.742Z,2.22
2022-10-10T08:02:30.955Z,1.90
2022-10-10T08:07:35.943Z,1.80
2022-10-10T08:12:39.232Z,1.58
2022-10-10T08:17:42.450Z,1.30
2022-10-10T08:22:47.094Z,1.65
2022-10-10T08:27:50.332Z,2.08
2022-10-10T08:32:53.807Z,1.60
2022-10-10T08:37:58.643Z,1.80
2022-10-10T08:43:08.765Z,1.50
2022-10-10T08:48:16.252Z,1.73
2022-10-10T08:53:27.961Z,0.95
2022-10-10T08:58:34.381Z,1.65
2022-10-10T09:03:42.587Z,1.67
2022-10-10T09:08:54.152Z,1.55
2022-10-10T09:14:09.770Z,1.60
2022-10-10T09:19:24.640Z,1.73
2022-10-10T09:24:34.617Z,1.50
2022-10-10T09:29:43.719Z,1.50
2022-10-10T09:34:49.700Z,1.63
2022-10-10T09:39:58.625Z,1.80
2022-10-10T09:45:02.245Z,1.90
2022-10-10T09:50:06.221Z,1.52
2022-10-10T09:55:27.101Z,1.63
2022-10-10T10:00:36.842Z,2.17
2022-10-10T10:05:41.512Z,1.90
2022-10-10T10:10:46.235Z,1.70
2022-10-10T10:15:52.851Z,1.80
2022-10-10T10:21:14.019Z,1.83
2022-10-10T10:26:21.159Z,2.03
2022-10-10T10:31:44.798Z,2.10
2022-10-10T10:36:55.666Z,1.88
2022-10-10T10:42:07.334Z,1.88
2022-10-10T10:47:28.840Z,2.10
2022-10-10T10:52:46.255Z,2.00
2022-10-10T10:58:57.888Z,2.40
2022-10-10T11:05:18.550Z,1.90
2022-10-10T11:09:31.087Z,1.88
2022-10-10T11:14:51.033Z,1.60
2022-10-10T11:20:00.398Z,1.80
2022-10-10T11:25:09.545Z,1.60
2022-10-10T11:30:18.322Z,1.80
2022-10-10T11:35:37.908Z,1.50
2022-10-10T11:40:51.404Z,1.70
2022-10-10T11:46:05.635Z,1.80
2022-10-10T11:51:18.993Z,2.17
2022-10-10T11:56:29.942Z,1.95
2022-10-10T12:01:38.983Z,1.90
2022-10-10T12:06:46.648Z,1.83
2022-10-10T12:11:54.974Z,2.10
2022-10-10T12:17:00.811Z,1.92
2022-10-10T12:22:06.183Z,2.17
2022-10-10T12:27:42.491Z,1.90
2022-10-10T12:32:47.931Z,1.77
2022-10-10T12:38:19.807Z,1.80
2022-10-10T12:43:25.900Z,1.65
2022-10-10T12:48:30.751Z,2.00
2022-10-10T12:53:35.636Z,2.28
2022-10-10T12:58:41.383Z,2.20
2022-10-10T13:03:50.072Z,2.17
2022-10-10T13:08:55.141Z,1.90
2022-10-10T13:13:58.813Z,2.15
2022-10-10T13:19:03.453Z,2.40
2022-10-10T13:24:08.253Z,2.55
2022-10-10T13:29:22.418Z,2.47
2022-10-10T13:34:30.427Z,2.30
2022-10-10T13:39:37.567Z,2.65
2022-10-10T13:44:50.878Z,2.03
2022-10-10T13:49:58.685Z,2.20
2022-10-10T13:55:16.546Z,2.17
2022-10-10T14:00:30.595Z,2.38
2022-10-10T14:05:35.249Z,2.17
2022-10-10T14:10:38.458Z,1.95
2022-10-10T14:15:47.237Z,2.10
2022-10-10T14:20:55.540Z,2.30
2022-10-10T14:25:59.305Z,2.30
2022-10-10T14:31:03.143Z,2.30
2022-10-10T14:36:08.537Z,2.38
2022-10-10T14:41:13.796Z,2.55
2022-10-10T14:46:20.185Z,2.03
2022-10-10T14:51:34.274Z,2.15
2022-10-10T14:57:09.022Z,2.25
2022-10-10T15:02:02.069Z,2.25
2022-10-10T15:07:15.154Z,2.67
2022-10-10T15:12:18.778Z,2.65
2022-10-10T15:17:22.045Z,2.10
2022-10-10T15:22:27.607Z,1.98
2022-10-10T15:27:32.999Z,2.20
2022-10-10T15:32:39.486Z,2.38
2022-10-10T15:37:44.933Z,2.58
2022-10-10T15:42:50.979Z,2.50
2022-10-10T15:47:54.262Z,2.45
2022-10-10T15:53:05.157Z,2.47
2022-10-10T15:58:08.428Z,2.33
2022-10-10T16:03:11.765Z,2.22
2022-10-10T16:08:16.551Z,2.45
2022-10-10T16:13:20.214Z,2.20
2022-10-10T16:18:23.440Z,2.50
2022-10-10T16:23:28.567Z,2.53
2022-10-10T16:28:32.412Z,2.17
2022-10-10T16:33:36.824Z,3.03
2022-10-10T16:38:42.627Z,2.60
2022-10-10T16:43:48.419Z,2.60
2022-10-10T16:48:52.109Z,2.72
2022-10-10T16:53:57.664Z,2.20
2022-10-10T16:59:01.295Z,2.50
2022-10-10T17:04:05.306Z,2.60
2022-10-10T17:09:11.639Z,2.33
2022-10-10T17:14:16.322Z,2.65
2022-10-10T17:19:19.623Z,2.70
2022-10-10T17:24:25.304Z,2.63
2022-10-10T17:29:28.671Z,3.10
2022-10-10T17:34:32.170Z,2.95
2022-10-10T17:39:36.986Z,2.80
2022-10-10T17:44:46.493Z,3.03
2022-10-10T17:49:54.787Z,2.92
2022-10-10T17:54:59.547Z,2.40
2022-10-10T18:00:03.053Z,2.88
2022-10-10T18:05:08.595Z,2.95
2022-10-10T18:10:13.608Z,2.70
2022-10-10T18:15:17.040Z,2.88
2022-10-10T18:20:21.168Z,2.88
2022-10-10T18:25:26.334Z,2.90
2022-10-10T18:30:30.148Z,3.05
2022-10-10T18:35:34.070Z,2.58
2022-10-10T18:40:39.566Z,2.65
2022-10-10T18:45:42.930Z,2.97
2022-10-10T18:50:46.223Z,2.63
2022-10-10T18:56:00.383Z,2.67
2022-10-10T19:01:06.428Z,2.67
2022-10-10T19:06:13.151Z,2.33
2022-10-10T19:11:23.181Z,2.90
2022-10-10T19:16:27.174Z,3.20
2022-10-10T19:21:33.797Z,3.45
2022-10-10T19:26:38.984Z,3.15
2022-10-10T19:31:42.905Z,2.60
2022-10-10T19:36:46.471Z,2.83
2022-10-10T19:41:53.387Z,2.90
2022-10-10T19:46:56.865Z,2.50
2022-10-10T19:52:00.197Z,2.60
2022-10-10T19:57:04.964Z,3.17
2022-10-10T20:02:08.514Z,2.95
2022-10-10T20:07:11.834Z,3.28
2022-10-10T20:12:16.567Z,2.67
2022-10-10T20:17:19.877Z,2.80
2022-10-10T20:22:23.354Z,2.97
2022-10-10T20:27:31.253Z,2.83
2022-10-10T20:32:34.780Z,3.40
2022-10-10T20:37:38.128Z,2.70
2022-10-10T20:42:42.979Z,3.00
2022-10-10T20:47:46.275Z,2.53
2022-10-10T20:52:49.528Z,2.80
2022-10-10T20:57:54.176Z,2.90
2022-10-10T21:02:58.005Z,3.05
2022-10-10T21:08:01.911Z,3.25
2022-10-10T21:13:06.544Z,2.40
2022-10-10T21:18:10.415Z,2.83
2022-10-10T21:23:13.670Z,3.17
2022-10-10T21:28:18.392Z,2.58
2022-10-10T21:33:21.738Z,2.60
2022-10-10T21:38:26.009Z,3.00
2022-10-10T21:43:30.697Z,3.03
2022-10-10T21:48:34.055Z,3.20
2022-10-10T21:53:37.695Z,3.47
2022-10-10T21:58:43.900Z,3.10
2022-10-10T22:03:49.516Z,4.18
2022-10-10T22:08:54.997Z,3.20
2022-10-10T22:14:02.367Z,3.47
2022-10-10T22:19:06.555Z,3.20
2022-10-10T22:24:10.024Z,3.70
2022-10-10T22:29:14.750Z,3.30
2022-10-10T22:34:18.225Z,3.13
2022-10-10T22:39:21.942Z,3.20
2022-10-10T22:44:26.750Z,2.80
2022-10-10T22:49:30.111Z,3.47
2022-10-10T22:54:33.700Z,3.55
2022-10-10T22:59:38.752Z,3.72
2022-10-10T23:04:42.108Z,3.33
2022-10-10T23:09:46.106Z,3.75
2022-10-10T23:14:50.898Z,3.58
2022-10-10T23:19:54.187Z,3.47
2022-10-10T23:24:57.404Z,3.65
2022-10-10T23:30:01.980Z,3.17
2022-10-10T23:35:05.939Z,3.97
2022-10-10T23:40:09.989Z,3.55
2022-10-10T23:45:14.730Z,3.58
2022-10-10T23:50:18.407Z,3.42
2022-10-10T23:55:21.988Z,3.50
